Time;durP1;ratioP1;P1;durP2;ratioP2;P2;SDS_P1;SDS_P2;PMS_P1;PMS_P2;Temp;Humidity;BMP_temperature;BMP_pressure;BME280_temperature;BME280_humidity;BME280_pressure;Samples;Min_cycle;Max_cycle;Signal;HPM_P1;HPM_P2
2022/07/16 00:03:07;;;;;;;5.88;3.80;;;;;;;16.34;46.32;99399.56;2623251;39;20094;-67
2022/07/16 00:05:40;;;;;;;5.88;3.13;;;;;;;16.23;46.22;99400.25;2623053;54;20034;-67
2022/07/16 00:08:09;;;;;;;4.35;3.45;;;;;;;16.03;46.62;99401.19;2623556;54;20058;-65
2022/07/16 00:10:39;;;;;;;7.25;3.58;;;;;;;15.99;47.38;99401.81;2620987;54;20026;-67
2022/07/16 00:13:09;;;;;;;7.15;3.45;;;;;;;16.01;47.15;99403.25;2620539;54;20031;-67
2022/07/16 00:15:39;;;;;;;3.83;3.42;;;;;;;15.89;47.18;99401.47;2622488;54;20038;-66
2022/07/16 00:20:53;;;;;;;7.40;3.50;;;;;;;15.70;47.73;99412.00;2624225;54;20086;-66
2022/07/16 00:23:23;;;;;;;4.47;3.53;;;;;;;15.66;47.86;99409.97;2623396;54;20033;-66
2022/07/16 00:25:53;;;;;;;6.78;4.20;;;;;;;15.54;48.48;99407.09;2623563;54;20038;-66
2022/07/16 00:28:22;;;;;;;6.45;4.30;;;;;;;15.44;48.57;99406.72;2623869;54;20038;-66
2022/07/16 00:30:52;;;;;;;6.35;3.88;;;;;;;15.38;48.98;99407.56;2624272;54;20046;-67
2022/07/16 00:33:22;;;;;;;4.43;3.83;;;;;;;15.30;48.63;99405.94;2623752;54;20027;-66
2022/07/16 00:35:54;;;;;;;4.22;3.60;;;;;;;15.15;49.19;99400.03;2624458;54;20554;-66
2022/07/16 00:38:24;;;;;;;6.20;4.10;;;;;;;15.09;49.63;99404.31;2624579;54;20087;-66
2022/07/16 00:40:54;;;;;;;4.47;3.92;;;;;;;15.10;50.14;99406.81;2623390;39;20417;-66
2022/07/16 00:43:24;;;;;;;4.88;3.90;;;;;;;15.20;50.14;99400.22;2623613;54;20045;-66
2022/07/16 00:45:53;;;;;;;6.50;3.92;;;;;;;15.26;49.48;99404.72;2622196;54;20041;-67
2022/07/16 00:48:23;;;;;;;6.07;3.85;;;;;;;15.28;49.75;99400.81;2621881;54;20035;-66
2022/07/16 00:50:55;;;;;;;5.85;4.13;;;;;;;15.22;49.32;99404.31;2621511;54;20072;-67
2022/07/16 00:53:25;;;;;;;4.22;3.72;;;;;;;15.14;49.91;99409.84;2623019;54;20038;-67
2022/07/16 00:55:55;;;;;;;6.20;3.67;;;;;;;15.08;50.11;99408.84;2621499;54;20044;-66
2022/07/16 00:58:24;;;;;;;6.43;3.95;;;;;;;15.02;50.32;99403.50;2622759;54;20038;-66
2022/07/16 01:00:54;;;;;;;8.55;4.10;;;;;;;14.96;50.65;99401.69;2620974;54;20027;-66
2022/07/16 01:03:24;;;;;;;5.45;3.95;;;;;;;14.98;50.33;99408.47;2621183;54;20027;-67
2022/07/16 01:05:56;;;;;;;4.50;3.85;;;;;;;15.06;50.53;99402.06;2620749;54;20038;-66
2022/07/16 01:08:26;;;;;;;5.93;3.97;;;;;;;14.99;49.98;99407.44;2620813;54;20038;-66
2022/07/16 01:10:57;;;;;;;7.18;4.10;;;;;;;14.91;50.53;99407.63;2620679;54;20538;-66
2022/07/16 01:13:27;;;;;;;5.25;4.13;;;;;;;14.91;50.48;99404.16;2619956;47;20030;-66
2022/07/16 01:15:57;;;;;;;6.97;4.32;;;;;;;14.78;50.60;99410.31;2619760;47;20030;-66
2022/07/16 01:18:26;;;;;;;5.00;4.50;;;;;;;14.59;51.31;99404.75;2620341;54;20538;-66
2022/07/16 01:20:59;;;;;;;8.73;4.10;;;;;;;14.43;51.79;99404.31;2619644;54;20041;-66
2022/07/16 01:23:31;;;;;;;5.35;4.43;;;;;;;14.48;51.65;99407.16;2620200;54;20046;-67
2022/07/16 01:26:01;;;;;;;5.70;4.18;;;;;;;14.49;51.54;99404.34;2619988;54;20026;-66
2022/07/16 01:28:31;;;;;;;9.00;4.30;;;;;;;14.52;51.87;99403.94;2618537;54;20279;-65
2022/07/16 01:31:01;;;;;;;6.07;4.60;;;;;;;14.57;51.68;99401.50;2616859;54;20042;-66
2022/07/16 01:33:33;;;;;;;4.85;3.38;;;;;;;14.60;51.24;99398.41;2618205;54;20030;-66
2022/07/16 01:36:06;;;;;;;5.43;3.40;;;;;;;14.53;51.35;99400.28;2620386;54;20041;-66
2022/07/16 01:38:40;;;;;;;5.80;4.25;;;;;;;14.50;51.37;99399.84;2620694;54;20026;-66
2022/07/16 01:41:10;;;;;;;;;;;;;;;14.46;51.68;99399.41;2620317;54;20026;-66
2022/07/16 01:43:40;;;;;;;5.55;3.80;;;;;;;14.48;51.66;99400.00;2621166;54;20022;-66
2022/07/16 01:46:09;;;;;;;6.40;3.90;;;;;;;14.50;51.93;99402.50;2622538;54;20030;-66
2022/07/16 01:48:39;;;;;;;5.45;3.90;;;;;;;14.38;51.62;99403.06;2622031;47;20061;-66
2022/07/16 01:51:09;;;;;;;6.25;4.05;;;;;;;14.23;51.89;99406.94;2623110;54;20045;-66
2022/07/16 01:53:41;;;;;;;5.85;4.03;;;;;;;14.23;52.14;99404.28;2623895;54;20118;-65
2022/07/16 01:56:11;;;;;;;6.05;4.18;;;;;;;14.16;52.21;99395.44;2623284;54;20038;-65
2022/07/16 01:58:41;;;;;;;4.85;4.00;;;;;;;14.09;52.78;99392.78;2623064;54;20728;-65
2022/07/16 02:01:11;;;;;;;5.13;4.45;;;;;;;14.12;53.01;99393.22;2622643;54;20041;-65
2022/07/16 02:03:41;;;;;;;5.75;4.22;;;;;;;14.18;52.71;99396.09;2623371;54;20035;-65
2022/07/16 02:06:11;;;;;;;4.50;4.05;;;;;;;14.04;53.06;99390.75;2620227;47;20515;-65
2022/07/16 02:08:43;;;;;;;5.30;4.25;;;;;;;14.09;53.36;99393.59;2619435;54;20039;-65
2022/07/16 02:11:12;;;;;;;5.90;4.22;;;;;;;13.98;53.35;99390.72;2621657;54;20026;-65
2022/07/16 02:13:42;;;;;;;5.10;4.15;;;;;;;14.07;53.27;99394.81;2622188;54;20023;-65
2022/07/16 02:16:13;;;;;;;4.15;3.72;;;;;;;14.15;53.35;99393.81;2621858;54;20023;-65
2022/07/16 02:18:42;;;;;;;4.35;3.75;;;;;;;14.12;52.68;99390.56;2622137;54;20027;-64
2022/07/16 02:21:12;;;;;;;4.78;4.25;;;;;;;13.99;53.23;99395.00;2621341;54;20042;-64
2022/07/16 02:23:44;;;;;;;5.30;4.40;;;;;;;13.81;53.58;99388.41;2621306;54;20030;-65
2022/07/16 02:26:14;;;;;;;5.20;4.45;;;;;;;13.69;53.90;99397.97;2621253;54;20031;-65
2022/07/16 02:28:43;;;;;;;6.32;4.55;;;;;;;13.58;54.04;99401.19;2621597;54;20039;-65
2022/07/16 02:31:13;;;;;;;4.80;4.40;;;;;;;13.60;54.44;99407.13;2621595;54;20022;-64
2022/07/16 02:33:43;;;;;;;6.25;4.43;;;;;;;13.53;54.76;99404.44;2621273;54;20041;-66
2022/07/16 02:36:13;;;;;;;5.68;4.22;;;;;;;13.65;54.39;99404.69;2620955;54;20045;-65
2022/07/16 02:38:45;;;;;;;4.97;4.45;;;;;;;13.76;54.34;99398.00;2621392;54;20043;-64
2022/07/16 02:41:15;;;;;;;5.70;3.63;;;;;;;13.75;54.08;99404.31;2622352;54;20025;-65
2022/07/16 02:43:44;;;;;;;5.78;4.05;;;;;;;13.78;54.06;99396.78;2620810;54;20030;-64
2022/07/16 02:46:14;;;;;;;5.93;4.55;;;;;;;13.76;53.53;99400.66;2619571;54;20035;-66
2022/07/16 02:48:44;;;;;;;4.40;4.00;;;;;;;13.61;53.92;99406.09;2622484;39;20430;-65
2022/07/16 02:51:13;;;;;;;5.55;4.90;;;;;;;13.59;54.69;99405.47;2621729;54;20126;-65
2022/07/16 02:53:46;;;;;;;7.38;4.63;;;;;;;13.51;54.57;99398.50;2622466;54;20030;-65
2022/07/16 02:56:15;;;;;;;5.68;4.25;;;;;;;13.57;54.88;99407.50;2622355;54;20027;-65
2022/07/16 02:58:45;;;;;;;5.13;4.57;;;;;;;13.59;54.72;99402.81;2622555;54;20127;-65
2022/07/16 03:01:15;;;;;;;5.03;4.40;;;;;;;13.59;54.61;99400.16;2622264;54;20106;-66
2022/07/16 03:03:45;;;;;;;6.80;4.35;;;;;;;13.66;54.69;99397.53;2622572;54;20046;-66
2022/07/16 03:06:14;;;;;;;5.93;4.72;;;;;;;13.73;54.41;99401.88;2622312;54;20034;-65
2022/07/16 03:08:47;;;;;;;6.38;4.57;;;;;;;13.66;54.24;99408.97;2621816;54;20026;-65
2022/07/16 03:11:18;;;;;;;5.28;4.32;;;;;;;13.52;54.75;99402.81;2619645;54;20531;-66
2022/07/16 03:13:48;;;;;;;7.63;4.93;;;;;;;13.44;54.80;99413.59;2619597;54;20026;-65
2022/07/16 03:16:18;;;;;;;8.05;5.28;;;;;;;13.18;55.16;99411.53;2619591;54;20025;-65
2022/07/16 03:18:48;;;;;;;6.82;4.90;;;;;;;13.01;55.86;99412.84;2619610;54;20030;-64
2022/07/16 03:21:18;;;;;;;6.78;4.50;;;;;;;12.96;56.10;99418.75;2619401;54;20058;-65
2022/07/16 03:23:50;;;;;;;5.32;4.82;;;;;;;12.91;56.08;99412.38;2619231;54;20041;-66
2022/07/16 03:26:19;;;;;;;7.47;4.38;;;;;;;12.81;56.33;99415.34;2619891;39;20456;-65
2022/07/16 03:28:49;;;;;;;6.68;4.68;;;;;;;12.68;56.12;99410.75;2620226;31;20506;-66
2022/07/16 03:31:19;;;;;;;5.70;4.75;;;;;;;12.72;56.64;99406.72;2621713;54;20031;-66
2022/07/16 03:33:49;;;;;;;7.05;5.20;;;;;;;12.77;56.76;99417.56;2622931;54;20030;-65
2022/07/16 03:36:19;;;;;;;5.93;4.65;;;;;;;12.80;56.74;99419.84;2623723;54;20033;-65
2022/07/16 03:39:01;;;;;;;5.32;4.45;;;;;;;12.80;56.71;99414.53;2623020;47;20031;-65
2022/07/16 03:41:31;;;;;;;7.30;4.40;;;;;;;12.77;56.60;99409.63;2622267;39;20429;-65
2022/07/16 03:44:01;;;;;;;5.40;4.90;;;;;;;12.71;56.43;99412.22;2620192;54;20046;-66
2022/07/16 03:46:31;;;;;;;8.15;4.65;;;;;;;12.71;56.79;99413.03;2618659;54;20027;-66
2022/07/16 03:49:01;;;;;;;5.50;4.75;;;;;;;12.74;56.54;99417.16;2618271;54;20033;-66
2022/07/16 03:51:32;;;;;;;8.85;5.13;;;;;;;12.72;56.65;99419.16;2617883;54;20037;-66
2022/07/16 03:54:04;;;;;;;6.05;4.93;;;;;;;12.78;56.64;99419.25;2619417;54;20022;-66
2022/07/16 03:56:35;;;;;;;7.05;4.97;;;;;;;12.82;56.86;99424.97;2620036;54;20030;-66
2022/07/16 03:59:05;;;;;;;6.18;5.53;;;;;;;12.75;56.74;99430.22;2620845;54;20049;-65
2022/07/16 04:01:35;;;;;;;5.50;5.00;;;;;;;12.67;57.20;99421.59;2602445;54;20042;-69
2022/07/16 04:04:04;;;;;;;6.75;5.20;;;;;;;12.74;57.24;99423.28;2617441;54;20057;-71
2022/07/16 04:06:34;;;;;;;5.10;4.60;;;;;;;12.72;57.22;99427.94;2617474;54;20149;-69
2022/07/16 04:09:07;;;;;;;7.18;4.55;;;;;;;12.65;56.98;99437.66;2617203;47;20033;-68
2022/07/16 04:11:36;;;;;;;9.20;5.60;;;;;;;12.53;57.08;99423.28;2617974;54;20037;-68
2022/07/16 04:14:06;;;;;;;7.45;4.97;;;;;;;12.51;57.30;99430.63;2617919;54;20026;-69
2022/07/16 04:16:37;;;;;;;5.45;4.75;;;;;;;12.44;57.40;99424.41;2622641;54;20038;-65
2022/07/16 04:19:13;;;;;;;6.88;5.07;;;;;;;12.44;57.58;99425.22;2622771;54;20035;-66
2022/07/16 04:21:43;;;;;;;6.88;4.93;;;;;;;12.47;57.69;99424.88;2623446;54;20855;-66
2022/07/16 04:24:15;;;;;;;8.10;5.35;;;;;;;12.50;57.59;99428.97;2623567;54;20030;-66
2022/07/16 04:26:45;;;;;;;7.22;5.50;;;;;;;12.57;57.07;99428.03;2623015;39;20705;-64
2022/07/16 04:29:15;;;;;;;5.82;4.85;;;;;;;12.72;57.23;99430.59;2623667;54;20577;-65
2022/07/16 04:31:44;;;;;;;5.97;5.25;;;;;;;12.78;57.09;99432.50;2623620;54;20667;-65
2022/07/16 04:34:14;;;;;;;6.72;5.18;;;;;;;12.82;56.92;99423.16;2622899;54;20023;-65
2022/07/16 04:36:44;;;;;;;5.75;4.65;;;;;;;12.86;57.22;99429.72;2623650;54;20026;-65
2022/07/16 04:39:16;;;;;;;6.70;4.50;;;;;;;12.96;56.88;99429.38;2624126;54;20042;-65
2022/07/16 04:41:46;;;;;;;8.73;5.50;;;;;;;13.08;56.38;99437.63;2623170;39;20429;-65
2022/07/16 04:44:16;;;;;;;6.97;5.13;;;;;;;13.20;55.82;99428.09;2622382;54;20039;-67
2022/07/16 04:46:52;;;;;;;7.68;5.40;;;;;;;13.19;55.68;99436.28;2622154;54;20081;-67
2022/07/16 04:49:21;;;;;;;6.32;4.97;;;;;;;13.08;55.73;99434.97;2622434;54;20039;-65
2022/07/16 04:51:51;;;;;;;4.63;4.22;;;;;;;13.03;56.12;99440.88;2624550;54;20030;-66
2022/07/16 04:54:23;;;;;;;7.28;5.18;;;;;;;13.28;56.00;99441.28;2624771;54;20038;-65
2022/07/16 04:56:53;;;;;;;6.80;4.47;;;;;;;13.40;55.77;99433.59;2625356;54;20033;-66
2022/07/16 04:59:23;;;;;;;6.50;4.50;;;;;;;13.52;55.20;99439.16;2626238;54;20029;-67
2022/07/16 05:01:52;;;;;;;6.40;4.78;;;;;;;13.66;55.38;99438.22;2626551;54;20034;-67
2022/07/16 05:04:22;;;;;;;5.07;4.57;;;;;;;13.79;54.84;99437.44;2626180;54;20027;-67
2022/07/16 05:06:52;;;;;;;5.68;4.63;;;;;;;13.82;54.44;99434.41;2625729;54;20537;-71
2022/07/16 05:09:24;;;;;;;7.28;4.72;;;;;;;13.78;54.72;99443.78;2625781;54;20038;-66
2022/07/16 05:11:54;;;;;;;6.78;4.50;;;;;;;13.84;54.09;99440.34;2625864;54;20026;-66
2022/07/16 05:14:25;;;;;;;5.65;4.40;;;;;;;13.86;54.42;99430.31;2625382;47;20030;-67
2022/07/16 05:16:55;;;;;;;7.15;4.57;;;;;;;14.04;54.24;99432.44;2625522;47;20034;-67
2022/07/16 05:19:26;;;;;;;5.45;4.78;;;;;;;14.10;53.22;99439.63;2625727;54;20065;-67
2022/07/16 05:21:56;;;;;;;9.07;5.20;;;;;;;13.99;53.63;99438.34;2627053;39;20402;-66
2022/07/16 05:24:28;;;;;;;5.18;4.68;;;;;;;14.14;53.44;99446.19;2626113;54;20717;-67
2022/07/16 05:26:58;;;;;;;5.95;4.38;;;;;;;14.24;53.32;99448.44;2626832;54;20033;-67
2022/07/16 05:29:28;;;;;;;6.80;4.50;;;;;;;14.38;53.55;99450.94;2626077;54;20029;-67
2022/07/16 05:31:58;;;;;;;4.53;4.13;;;;;;;14.60;53.67;99456.13;2626565;54;20022;-67
2022/07/16 05:34:27;;;;;;;7.95;4.78;;;;;;;14.78;52.24;99450.22;2626595;54;20042;-68
2022/07/16 05:36:57;;;;;;;11.68;5.10;;;;;;;14.75;52.58;99462.09;2623499;54;20556;-66
2022/07/16 05:39:34;;;;;;;7.78;4.68;;;;;;;14.82;52.67;99464.78;2622146;54;20035;-66
2022/07/16 05:42:04;;;;;;;8.35;7.25;;;;;;;14.92;52.74;99473.16;2622563;54;20557;-66
2022/07/16 05:44:34;;;;;;;7.57;4.80;;;;;;;15.00;52.07;99475.63;2622109;54;20549;-67
2022/07/16 05:47:04;;;;;;;6.22;4.95;;;;;;;15.03;52.17;99469.06;2622260;54;20027;-66
2022/07/16 05:49:34;;;;;;;12.80;9.38;;;;;;;15.17;52.21;99473.34;2621872;54;20093;-67
2022/07/16 05:52:10;;;;;;;5.75;4.45;;;;;;;15.25;51.85;99478.47;2622428;54;20023;-67
2022/07/16 05:54:42;;;;;;;11.05;8.20;;;;;;;15.26;51.56;99476.63;2622343;54;20045;-66
2022/07/16 05:57:12;;;;;;;19.50;11.55;;;;;;;15.17;51.54;99484.00;2622371;54;20026;-65
2022/07/16 05:59:42;;;;;;;6.22;5.30;;;;;;;15.24;51.18;99479.50;2622534;54;20046;-65
2022/07/16 06:02:11;;;;;;;6.63;5.13;;;;;;;15.31;51.32;99482.97;2621073;54;20034;-68
2022/07/16 06:04:41;;;;;;;9.98;4.95;;;;;;;15.48;50.97;99482.56;2621629;54;20011;-65
2022/07/16 06:07:11;;;;;;;6.53;4.50;;;;;;;15.59;50.13;99484.56;2621347;54;20042;-66
2022/07/16 06:09:43;;;;;;;7.72;6.30;;;;;;;15.60;50.79;99483.56;2621609;54;20030;-66
2022/07/16 06:12:13;;;;;;;7.70;6.03;;;;;;;15.89;50.88;99484.13;2622286;39;20478;-67
2022/07/16 06:14:43;;;;;;;8.02;6.53;;;;;;;16.16;50.35;99474.97;2622144;54;20031;-67
2022/07/16 06:17:16;;;;;;;6.80;5.63;;;;;;;16.29;49.80;99474.94;2621119;54;20027;-67
2022/07/16 06:19:46;;;;;;;7.73;4.37;;;;;;;16.24;49.08;99477.38;2621525;39;20526;-67
2022/07/16 06:22:15;;;;;;;7.18;4.68;;;;;;;16.30;49.27;99478.41;2622072;39;20452;-67
2022/07/16 06:24:48;;;;;;;9.00;6.13;;;;;;;16.43;49.16;99473.00;2622334;39;20502;-67
2022/07/16 06:27:17;;;;;;;7.60;5.93;;;;;;;16.56;49.02;99488.91;2621169;54;20077;-66
2022/07/16 06:29:47;;;;;;;7.72;5.05;;;;;;;16.72;48.48;99487.59;2620244;47;20077;-67
2022/07/16 06:32:17;;;;;;;9.27;4.80;;;;;;;16.79;48.65;99488.41;2621710;39;20501;-67
2022/07/16 06:34:47;;;;;;;7.60;4.75;;;;;;;16.93;47.64;99489.09;2621588;54;20652;-67
2022/07/16 06:37:16;;;;;;;14.02;5.45;;;;;;;16.96;47.56;99496.69;2620080;54;20026;-67
2022/07/16 06:39:49;;;;;;;6.95;3.97;;;;;;;16.91;47.44;99496.53;2619671;47;20027;-68
2022/07/16 06:42:18;;;;;;;5.38;4.03;;;;;;;16.94;47.38;99488.09;2620426;54;20034;-68
2022/07/16 06:44:51;;;;;;;8.00;4.20;;;;;;;17.06;47.91;99496.19;2620265;46;20123;-67
2022/07/16 06:47:21;;;;;;;5.65;4.20;;;;;;;17.21;47.49;99493.22;2621117;54;20290;-68
2022/07/16 06:49:51;;;;;;;6.82;5.47;;;;;;;17.33;47.43;99494.94;2620112;54;20039;-68
2022/07/16 06:52:21;;;;;;;6.53;4.63;;;;;;;17.43;47.09;99483.78;2620824;54;20031;-67
2022/07/16 06:54:53;;;;;;;4.55;3.63;;;;;;;17.61;46.80;99492.84;2621700;54;20032;-66
2022/07/16 06:57:23;;;;;;;10.02;5.93;;;;;;;17.74;45.97;99485.53;2621887;39;20422;-67
2022/07/16 06:59:52;;;;;;;6.18;4.63;;;;;;;17.76;45.90;99493.34;2622689;39;20445;-68
2022/07/16 07:02:22;;;;;;;15.45;12.40;;;;;;;17.84;45.91;99490.38;2621277;54;20549;-68
2022/07/16 07:04:52;;;;;;;4.22;3.13;;;;;;;17.93;45.49;99489.03;2619945;39;20398;-66
2022/07/16 07:07:21;;;;;;;9.45;5.10;;;;;;;18.09;45.72;99482.25;2619229;54;20041;-66
2022/07/16 07:09:54;;;;;;;4.03;3.10;;;;;;;18.18;45.13;99483.56;2618737;54;20083;-66
2022/07/16 07:12:24;;;;;;;10.05;6.85;;;;;;;18.21;44.97;99483.13;2621206;54;20784;-67
2022/07/16 07:14:53;;;;;;;4.97;4.20;;;;;;;18.39;44.63;99471.56;2620721;54;20078;-68
2022/07/16 07:17:23;;;;;;;5.30;3.65;;;;;;;18.50;44.33;99475.34;2620740;54;20031;-67
2022/07/16 07:19:53;;;;;;;3.42;2.50;;;;;;;18.57;44.36;99476.03;2619754;47;20031;-67
2022/07/16 07:22:22;;;;;;;6.03;2.35;;;;;;;18.80;43.49;99478.81;2620004;54;20030;-68
2022/07/16 07:24:55;;;;;;;10.00;3.70;;;;;;;18.86;43.07;99476.25;2620040;54;20038;-68
2022/07/16 07:27:25;;;;;;;6.45;4.35;;;;;;;18.98;43.62;99477.09;2620447;54;20077;-68
2022/07/16 07:29:54;;;;;;;5.65;2.45;;;;;;;19.11;43.49;99476.91;2620607;39;20430;-68
2022/07/16 07:32:24;;;;;;;6.07;4.20;;;;;;;19.27;43.13;99475.41;2619645;54;20037;-68
2022/07/16 07:35:01;;;;;;;5.97;3.22;;;;;;;19.37;42.85;99475.59;2620657;54;20038;-68
2022/07/16 07:37:32;;;;;;;5.07;2.20;;;;;;;19.36;42.34;99476.66;2619475;47;20035;-67
2022/07/16 07:40:05;;;;;;;3.45;2.08;;;;;;;19.42;42.29;99475.72;2619589;54;20537;-67
2022/07/16 07:42:34;;;;;;;4.57;2.00;;;;;;;19.49;41.93;99475.59;2618434;47;20034;-68
2022/07/16 07:45:05;;;;;;;4.65;1.80;;;;;;;19.57;41.82;99474.44;2619360;54;20560;-67
2022/07/16 07:47:35;;;;;;;5.80;2.60;;;;;;;19.69;41.59;99476.09;2619104;47;20039;-67
2022/07/16 07:50:08;;;;;;;4.03;2.10;;;;;;;19.79;41.41;99478.16;2620737;54;20026;-67
2022/07/16 07:52:39;;;;;;;9.13;2.30;;;;;;;19.84;40.86;99477.44;2621294;54;20037;-67
2022/07/16 07:55:11;;;;;;;3.35;1.80;;;;;;;19.89;40.83;99474.91;2621664;54;20022;-66
2022/07/16 07:57:42;;;;;;;3.38;1.60;;;;;;;20.00;41.36;99476.72;2620292;54;20039;-66
2022/07/16 08:00:12;;;;;;;3.88;1.90;;;;;;;20.08;41.21;99467.47;2619676;54;20042;-65
2022/07/16 08:02:45;;;;;;;3.47;1.88;;;;;;;20.14;41.08;99470.03;2619877;54;20588;-66
2022/07/16 08:05:15;;;;;;;3.75;1.60;;;;;;;20.25;40.69;99466.50;2619101;54;20029;-66
2022/07/16 08:07:46;;;;;;;3.17;2.00;;;;;;;20.42;40.21;99471.09;2620089;54;20050;-67
2022/07/16 08:10:19;;;;;;;3.75;1.73;;;;;;;20.54;39.88;99463.81;2619734;47;20038;-67
2022/07/16 08:12:49;;;;;;;3.75;1.50;;;;;;;20.53;39.34;99464.88;2620083;54;20036;-67
2022/07/16 08:15:18;;;;;;;2.05;1.85;;;;;;;20.51;39.02;99464.31;2618390;46;20034;-66
2022/07/16 08:17:48;;;;;;;3.85;1.40;;;;;;;20.56;38.86;99469.75;2620221;54;20073;-65
2022/07/16 08:20:18;;;;;;;5.15;1.70;;;;;;;20.66;38.90;99461.91;2622044;39;20465;-65
2022/07/16 08:22:47;;;;;;;5.13;1.83;;;;;;;20.84;39.13;99468.09;2620959;54;20037;-68
2022/07/16 08:28:02;;;;;;;2.53;1.38;;;;;;;20.98;38.13;99467.53;2620259;47;20037;-66
2022/07/16 08:30:31;;;;;;;3.03;1.42;;;;;;;20.90;38.38;99470.63;2620380;54;20031;-68
2022/07/16 08:33:01;;;;;;;4.07;1.35;;;;;;;20.91;38.34;99463.38;2620090;54;20049;-68
2022/07/16 08:35:31;;;;;;;2.40;1.73;;;;;;;21.06;38.39;99468.16;2619906;54;20069;-68
2022/07/16 08:38:01;;;;;;;4.85;1.60;;;;;;;21.14;38.66;99454.31;2619342;47;20037;-68
2022/07/16 08:40:35;;;;;;;6.55;1.88;;;;;;;21.14;37.89;99460.50;2618726;54;20039;-66
2022/07/16 08:43:05;;;;;;;3.03;1.45;;;;;;;21.20;37.85;99462.22;2619837;54;20547;-67
2022/07/16 08:45:36;;;;;;;2.75;1.30;;;;;;;21.27;37.87;99457.50;2619249;54;20038;-68
2022/07/16 08:48:05;;;;;;;2.47;1.15;;;;;;;21.25;37.43;99448.03;2618833;39;20441;-67
2022/07/16 08:50:36;;;;;;;5.82;1.58;;;;;;;21.28;37.39;99451.06;2619195;54;20652;-67
2022/07/16 08:53:06;;;;;;;1.63;1.52;;;;;;;21.37;37.35;99447.97;2619127;54;20038;-67
2022/07/16 08:55:40;;;;;;;2.22;1.40;;;;;;;21.47;37.18;99450.78;2619993;54;20033;-67
2022/07/16 08:58:10;;;;;;;4.57;1.30;;;;;;;21.66;36.88;99454.00;2620201;54;20137;-67
2022/07/16 09:00:42;;;;;;;2.83;1.23;;;;;;;21.79;35.69;99447.44;2620166;54;20037;-69
2022/07/16 09:03:14;;;;;;;3.13;1.63;;;;;;;21.86;35.37;99451.59;2619893;47;20031;-68
2022/07/16 09:05:45;;;;;;;3.13;1.48;;;;;;;21.96;35.25;99448.19;2620559;54;20018;-68
2022/07/16 09:08:15;;;;;;;4.28;1.75;;;;;;;22.09;34.95;99452.41;2619402;47;20545;-68
2022/07/16 09:10:47;;;;;;;3.53;1.38;;;;;;;22.01;34.79;99445.59;2619360;47;20023;-67
2022/07/16 09:13:17;;;;;;;3.30;1.40;;;;;;;22.06;34.49;99452.91;2619267;54;20061;-66
2022/07/16 09:15:47;;;;;;;2.72;1.65;;;;;;;22.12;34.59;99450.00;2619398;54;20035;-66
2022/07/16 09:18:20;;;;;;;3.55;1.60;;;;;;;22.19;34.25;99445.25;2619694;54;20033;-67
2022/07/16 09:20:53;;;;;;;2.10;1.42;;;;;;;22.26;34.37;99450.47;2621801;54;20038;-68
2022/07/16 09:23:29;;;;;;;2.78;1.45;;;;;;;22.33;34.12;99445.69;2624053;54;20029;-68
2022/07/16 09:26:09;;;;;;;2.42;1.40;;;;;;;22.35;34.01;99445.44;2622316;47;20026;-67
2022/07/16 09:28:46;;;;;;;4.47;1.30;;;;;;;22.33;33.58;99453.78;2619968;54;20030;-68
2022/07/16 09:31:37;;;;;;;3.05;1.80;;;;;;;22.38;33.27;99456.50;2620282;54;20126;-68
2022/07/16 09:34:09;;;;;;;2.33;1.50;;;;;;;22.45;33.33;99458.97;2620836;54;20077;-68
2022/07/16 09:36:41;;;;;;;2.00;1.38;;;;;;;22.55;32.69;99461.78;2622243;54;20073;-69
2022/07/16 09:39:11;;;;;;;2.05;1.38;;;;;;;22.54;32.63;99457.47;2622922;54;20042;-68
2022/07/16 09:41:48;;;;;;;2.72;1.55;;;;;;;22.78;31.46;99454.44;2621217;54;20042;-68
2022/07/16 09:44:20;;;;;;;1.48;1.30;;;;;;;22.87;31.31;99447.53;2623102;54;20034;-70
2022/07/16 09:47:01;;;;;;;3.85;1.40;;;;;;;22.88;32.05;99449.16;2622718;54;20038;-67
2022/07/16 09:49:33;;;;;;;2.75;1.10;;;;;;;23.10;32.16;99449.06;2620480;54;20027;-68
2022/07/16 09:52:04;;;;;;;2.17;1.40;;;;;;;23.18;31.16;99453.97;2620363;54;20040;-69
2022/07/16 09:54:35;;;;;;;2.22;1.67;;;;;;;23.21;31.36;99445.38;2620028;54;20029;-68
2022/07/16 09:57:17;;;;;;;3.90;1.63;;;;;;;23.26;31.31;99447.28;2621056;54;20043;-69
2022/07/16 09:59:48;;;;;;;2.38;1.70;;;;;;;23.21;31.30;99443.47;2620539;54;20102;-69
2022/07/16 10:02:42;;;;;;;4.78;1.38;;;;;;;23.33;31.71;99445.19;2620650;54;20061;-67
2022/07/16 10:05:12;;;;;;;3.20;1.40;;;;;;;23.19;31.74;99447.53;2620416;54;20077;-67
2022/07/16 10:07:43;;;;;;;3.28;1.90;;;;;;;23.53;30.81;99444.50;2619598;47;20107;-67
2022/07/16 10:10:14;;;;;;;3.60;1.70;;;;;;;23.63;30.66;99439.13;2620448;54;20042;-68
2022/07/16 10:12:49;;;;;;;1.52;1.33;;;;;;;23.59;30.18;99446.13;2620340;54;20054;-67
2022/07/16 10:15:19;;;;;;;1.88;1.30;;;;;;;23.60;30.49;99437.78;2619593;54;20039;-67
2022/07/16 10:17:49;;;;;;;2.67;1.63;;;;;;;23.59;30.42;99438.84;2618961;54;20033;-67
2022/07/16 10:20:21;;;;;;;25.02;3.45;;;;;;;23.59;30.56;99443.44;2618370;54;20018;-68
2022/07/16 10:22:53;;;;;;;3.70;1.73;;;;;;;23.82;30.50;99450.31;2619252;54;20034;-68
2022/07/16 10:25:30;;;;;;;2.53;1.42;;;;;;;23.95;29.57;99447.13;2618853;54;20131;-68
2022/07/16 10:28:03;;;;;;;5.85;1.70;;;;;;;23.93;29.89;99443.91;2618737;54;20041;-68
2022/07/16 10:30:32;;;;;;;4.60;1.60;;;;;;;24.04;29.83;99448.22;2618873;54;20034;-67
2022/07/16 10:33:16;;;;;;;9.48;2.40;;;;;;;24.11;30.33;99443.41;2618010;47;20027;-68
2022/07/16 10:35:51;;;;;;;2.25;1.33;;;;;;;23.83;30.42;99457.34;2618650;54;20030;-69
2022/07/16 10:38:24;;;;;;;4.10;1.77;;;;;;;24.00;30.43;99439.03;2618626;54;20045;-69
2022/07/16 10:41:16;;;;;;;10.95;1.85;;;;;;;24.16;30.06;99448.00;2617698;47;20030;-69
2022/07/16 10:44:12;;;;;;;2.58;1.38;;;;;;;24.07;29.95;99445.00;2618227;54;20054;-69
2022/07/16 10:46:56;;;;;;;3.50;2.05;;;;;;;24.11;30.11;99446.09;2618428;54;20062;-70
2022/07/16 10:49:27;;;;;;;4.97;1.58;;;;;;;24.19;30.14;99448.28;2618006;47;20022;-68
2022/07/16 10:51:59;;;;;;;3.15;1.75;;;;;;;24.57;29.64;99453.50;2623959;54;20035;-69
2022/07/16 10:54:31;;;;;;;8.53;1.93;;;;;;;24.82;28.77;99450.00;2622363;54;20039;-68
2022/07/16 10:57:03;;;;;;;2.50;1.55;;;;;;;24.79;28.91;99448.69;2618852;54;20048;-69
2022/07/16 10:59:44;;;;;;;3.08;1.63;;;;;;;25.03;28.68;99448.16;2618147;54;20030;-70
2022/07/16 11:02:17;;;;;;;2.03;1.60;;;;;;;25.06;29.06;99442.97;2618500;54;20141;-70
2022/07/16 11:04:49;;;;;;;2.03;1.70;;;;;;;25.44;28.08;99451.63;2618304;54;20170;-69
2022/07/16 11:07:21;;;;;;;4.57;1.63;;;;;;;25.33;28.24;99452.72;2618383;54;20123;-69
2022/07/16 11:09:53;;;;;;;3.42;1.60;;;;;;;25.32;28.64;99446.50;2618676;54;20554;-70
2022/07/16 11:12:25;;;;;;;1.95;1.67;;;;;;;25.50;28.53;99453.22;2619773;39;20579;-70
2022/07/16 11:14:59;;;;;;;2.55;1.48;;;;;;;25.69;28.28;99445.31;2619841;46;20061;-69
2022/07/16 11:17:33;;;;;;;5.63;1.70;;;;;;;25.97;28.36;99440.38;2619168;31;20554;-69
2022/07/16 11:20:08;;;;;;;4.03;1.85;;;;;;;26.06;27.68;99450.31;2618297;51;20033;-69
2022/07/16 11:22:38;;;;;;;9.10;7.45;;;;;;;25.81;27.71;99436.91;2619331;54;20026;-69
2022/07/16 11:25:09;;;;;;;4.50;2.20;;;;;;;25.62;28.13;99442.09;2619323;54;20154;-68
2022/07/16 11:27:41;;;;;;;4.40;1.83;;;;;;;25.62;28.06;99445.59;2619277;54;20042;-68
2022/07/16 11:30:15;;;;;;;2.45;1.60;;;;;;;25.37;27.96;99443.78;2618518;54;20038;-68
2022/07/16 11:32:45;;;;;;;3.50;1.40;;;;;;;25.29;28.23;99443.53;2618815;54;20038;-70
2022/07/16 11:35:15;;;;;;;3.63;2.00;;;;;;;25.04;28.24;99442.44;2618314;47;20031;-70
2022/07/16 11:37:52;;;;;;;2.78;1.52;;;;;;;24.99;28.85;99441.66;2619227;54;20022;-69
2022/07/16 11:40:35;;;;;;;1.75;1.30;;;;;;;25.06;28.96;99445.69;2618410;54;20041;-70
2022/07/16 11:43:05;;;;;;;42.88;4.85;;;;;;;25.24;28.61;99443.53;2618777;54;20034;-69
2022/07/16 11:45:44;;;;;;;7.95;2.72;;;;;;;25.55;28.01;99441.56;2618742;54;20027;-70
2022/07/16 11:48:15;;;;;;;10.55;3.05;;;;;;;25.80;28.18;99441.53;2618093;54;20042;-69
2022/07/16 11:50:46;;;;;;;29.10;4.78;;;;;;;25.94;27.55;99426.28;2618463;39;20433;-69
2022/07/16 11:53:16;;;;;;;20.17;3.13;;;;;;;26.11;26.99;99438.66;2617955;39;20415;-69
2022/07/16 11:55:47;;;;;;;3.60;1.95;;;;;;;26.12;26.92;99419.41;2618409;54;20037;-69
2022/07/16 11:58:17;;;;;;;10.05;2.08;;;;;;;26.18;27.05;99423.72;2618165;54;20019;-69
2022/07/16 12:00:51;;;;;;;30.17;4.82;;;;;;;26.30;27.26;99419.84;2617431;47;20022;-69